createdAt,value
2022-11-23T00:01:41.942Z,77.08
2022-11-23T00:06:47.361Z,77.16
2022-11-23T00:11:49.735Z,76.72
2022-11-23T00:16:51.957Z,77.15
2022-11-23T00:21:54.205Z,76.78
2022-11-23T00:26:56.462Z,77.14
2022-11-23T00:31:58.691Z,77.38
2022-11-23T00:37:01.096Z,78.30
2022-11-23T00:42:03.566Z,78.17
2022-11-23T00:47:06.075Z,78.73
2022-11-23T00:52:08.272Z,78.76
2022-11-23T01:02:36.584Z,79.38
2022-11-23T01:07:38.793Z,78.52
2022-11-23T01:12:41.476Z,78.18
2022-11-23T01:17:43.589Z,78.71
2022-11-23T01:22:45.700Z,78.52
2022-11-23T01:27:47.890Z,77.97
2022-11-23T01:32:50.050Z,77.65
2022-11-23T01:37:52.256Z,78.32
2022-11-23T01:43:02.532Z,78.06
2022-11-23T01:48:18.610Z,77.95
2022-11-23T01:53:21.377Z,78.02
2022-11-23T01:58:25.533Z,78.16
2022-11-23T02:03:31.167Z,77.64
2022-11-23T02:08:33.512Z,77.60
2022-11-23T02:13:35.680Z,77.78
2022-11-23T02:18:41.938Z,78.34
2022-11-23T02:24:08.286Z,77.95
2022-11-23T02:29:13.688Z,77.92
2022-11-23T02:34:17.407Z,77.36
2022-11-23T02:39:19.553Z,77.33
2022-11-23T02:44:42.842Z,78.06
2022-11-23T02:49:49.714Z,77.80
2022-11-23T02:54:51.940Z,78.07
2022-11-23T02:59:54.202Z,77.56
2022-11-23T03:10:22.386Z,77.79
2022-11-23T03:15:25.435Z,77.93
2022-11-23T03:20:27.778Z,77.71
2022-11-23T03:25:30.041Z,79.56
2022-11-23T03:30:32.293Z,79.78
2022-11-23T03:35:34.477Z,79.44
2022-11-23T03:40:36.916Z,79.22
2022-11-23T03:45:39.100Z,78.33
2022-11-23T03:50:41.349Z,78.90
2022-11-23T03:55:45.847Z,78.27
2022-11-23T04:00:48.326Z,77.95
2022-11-23T04:05:50.726Z,78.68
2022-11-23T04:10:53.020Z,78.30
2022-11-23T04:15:55.251Z,78.04
2022-11-23T04:20:57.443Z,77.41
2022-11-23T04:25:59.833Z,77.60
2022-11-23T04:31:02.120Z,78.09
2022-11-23T04:36:04.769Z,78.93
2022-11-23T04:41:07.045Z,78.23
2022-11-23T04:46:11.997Z,78.10
2022-11-23T04:51:14.553Z,77.87
2022-11-23T04:56:16.796Z,77.75
2022-11-23T05:01:19.122Z,77.60
2022-11-23T05:06:21.571Z,77.69
2022-11-23T05:11:23.785Z,77.24
2022-11-23T05:16:25.972Z,77.35
2022-11-23T05:21:28.295Z,77.47
2022-11-23T05:26:30.675Z,77.81
2022-11-23T05:31:32.885Z,78.36
2022-11-23T05:36:38.435Z,77.68
2022-11-23T05:41:43.181Z,77.60
2022-11-23T05:46:45.331Z,78.17
2022-11-23T05:51:47.499Z,78.17
2022-11-23T05:56:49.730Z,77.70
2022-11-23T06:01:52.630Z,77.95
2022-11-23T06:06:55.187Z,78.14
2022-11-23T06:11:57.502Z,77.84
2022-11-23T06:16:59.871Z,77.93
2022-11-23T06:22:02.371Z,78.18
2022-11-23T06:27:04.809Z,77.42
2022-11-23T06:32:09.281Z,77.25
2022-11-23T06:37:11.659Z,77.95
2022-11-23T06:42:37.743Z,77.55
2022-11-23T06:47:36.388Z,77.42
2022-11-23T06:52:38.613Z,77.87
2022-11-23T06:57:40.984Z,77.65
2022-11-23T07:02:43.172Z,77.20
2022-11-23T07:07:45.428Z,77.95
2022-11-23T07:12:47.850Z,78.22
2022-11-23T07:17:50.218Z,77.63
2022-11-23T07:23:06.071Z,78.32
2022-11-23T07:28:10.841Z,78.82
2022-11-23T07:33:13.966Z,77.78
2022-11-23T07:38:16.229Z,78.49
2022-11-23T07:43:18.559Z,78.76
2022-11-23T07:48:20.841Z,78.90
2022-11-23T07:53:24.638Z,78.87
2022-11-23T07:58:26.893Z,79.13
2022-11-23T08:03:29.714Z,79.02
2022-11-23T08:08:32.600Z,79.06
2022-11-23T08:13:35.197Z,78.88
2022-11-23T08:18:37.637Z,79.51
2022-11-23T08:23:39.999Z,79.01
2022-11-23T08:28:42.225Z,78.89
2022-11-23T08:33:44.527Z,79.27
2022-11-23T08:38:47.225Z,78.03
2022-11-23T08:43:49.421Z,78.59
2022-11-23T08:48:51.751Z,78.35
2022-11-23T08:53:54.328Z,78.16
2022-11-23T08:58:56.573Z,77.97
2022-11-23T09:03:58.941Z,77.48
2022-11-23T09:09:01.099Z,76.83
2022-11-23T09:14:03.381Z,76.57
2022-11-23T09:19:07.593Z,76.18
2022-11-23T09:24:13.547Z,75.36
2022-11-23T09:29:16.176Z,75.29
2022-11-23T09:34:18.489Z,75.04
2022-11-23T09:39:20.763Z,74.49
2022-11-23T09:44:52.785Z,73.67
2022-11-23T09:50:07.297Z,72.18
2022-11-23T09:55:22.564Z,71.19
2022-11-23T10:00:24.943Z,70.81
2022-11-23T10:05:32.208Z,70.56
2022-11-23T10:11:00.447Z,69.09
2022-11-23T10:16:11.673Z,67.78
2022-11-23T10:21:41.885Z,66.50
2022-11-23T10:32:31.764Z,66.04
2022-11-23T10:37:37.875Z,65.48
2022-11-23T10:43:09.214Z,65.03
2022-11-23T10:48:11.633Z,65.28
2022-11-23T10:53:23.774Z,65.33
2022-11-23T10:58:25.995Z,64.23
2022-11-23T11:03:33.629Z,62.76
2022-11-23T11:08:49.226Z,61.73
2022-11-23T11:13:51.796Z,61.22
2022-11-23T11:18:54.420Z,60.92
2022-11-23T11:24:14.709Z,60.47
2022-11-23T11:29:47.556Z,51.87
2022-11-23T11:35:01.624Z,55.56
2022-11-23T11:40:13.236Z,52.88
2022-11-23T11:45:22.999Z,52.99
2022-11-23T11:50:33.074Z,52.56
2022-11-23T11:56:05.190Z,50.61
2022-11-23T12:01:34.289Z,46.73
2022-11-23T12:06:43.627Z,45.26
2022-11-23T12:11:46.155Z,46.75
2022-11-23T12:17:24.794Z,47.74
2022-11-23T12:23:05.501Z,46.31
2022-11-23T12:28:14.210Z,45.15
2022-11-23T12:33:45.632Z,45.51
2022-11-23T12:39:05.924Z,45.42
2022-11-23T12:44:19.968Z,45.87
2022-11-23T12:49:54.554Z,45.79
2022-11-23T12:55:05.737Z,45.81
2022-11-23T13:00:24.745Z,44.50
2022-11-23T13:05:55.046Z,44.13
2022-11-23T13:11:15.309Z,45.37
2022-11-23T13:16:26.996Z,46.13
2022-11-23T13:21:44.653Z,46.54
2022-11-23T13:27:09.053Z,45.55
2022-11-23T13:32:36.120Z,45.30
2022-11-23T13:37:58.373Z,46.01
2022-11-23T13:43:09.352Z,45.35
2022-11-23T13:48:41.374Z,45.13
2022-11-23T13:53:42.827Z,46.81
2022-11-23T13:58:53.802Z,48.27
2022-11-23T14:03:56.593Z,50.30
2022-11-23T14:09:25.459Z,53.70
2022-11-23T14:14:41.613Z,55.07
2022-11-23T14:20:02.089Z,55.11
2022-11-23T14:25:25.516Z,54.39
2022-11-23T14:30:44.345Z,53.03
2022-11-23T14:36:03.733Z,51.81
2022-11-23T14:41:24.384Z,51.56
2022-11-23T14:46:28.644Z,52.10
2022-11-23T14:51:32.306Z,52.21
2022-11-23T14:56:45.106Z,52.08
2022-11-23T15:02:19.638Z,52.65
2022-11-23T15:07:26.576Z,52.89
2022-11-23T15:12:49.366Z,52.95
2022-11-23T15:17:59.283Z,52.69
2022-11-23T15:23:02.962Z,52.88
2022-11-23T15:28:17.553Z,53.52
2022-11-23T15:33:23.330Z,54.14
2022-11-23T15:38:26.026Z,54.45
2022-11-23T15:43:28.574Z,55.52
2022-11-23T15:48:37.105Z,56.37
2022-11-23T15:53:51.321Z,55.67
2022-11-23T15:58:57.202Z,56.37
2022-11-23T16:04:05.269Z,56.25
2022-11-23T16:09:54.260Z,55.64
2022-11-23T16:14:59.380Z,55.25
2022-11-23T16:20:05.699Z,54.88
2022-11-23T16:25:37.603Z,55.40
2022-11-23T16:30:42.592Z,55.16
2022-11-23T16:35:47.593Z,55.29
2022-11-23T16:40:50.496Z,55.43
2022-11-23T16:45:55.374Z,55.68
2022-11-23T16:50:58.454Z,56.30
2022-11-23T16:56:06.968Z,56.43
2022-11-23T17:01:20.025Z,57.18
2022-11-23T17:06:28.564Z,56.83
2022-11-23T17:11:39.122Z,56.13
2022-11-23T17:16:44.412Z,56.33
2022-11-23T17:21:47.700Z,56.19
2022-11-23T17:26:54.118Z,56.51
2022-11-23T17:31:56.679Z,56.23
2022-11-23T17:37:01.736Z,56.82
2022-11-23T17:42:05.234Z,56.81
2022-11-23T17:47:15.552Z,57.29
2022-11-23T17:52:20.988Z,57.35
2022-11-23T17:57:27.136Z,57.55
2022-11-23T18:02:30.787Z,57.85
2022-11-23T18:07:35.786Z,58.61
2022-11-23T18:12:39.835Z,58.34
2022-11-23T18:17:44.514Z,58.57
2022-11-23T18:22:47.094Z,58.66
2022-11-23T18:27:49.993Z,58.80
2022-11-23T18:32:52.630Z,58.88
2022-11-23T18:37:56.283Z,59.04
2022-11-23T18:42:59.368Z,59.59
2022-11-23T18:48:02.218Z,59.50
2022-11-23T18:53:04.939Z,59.83
2022-11-23T18:58:12.044Z,59.62
2022-11-23T19:03:16.911Z,59.84
2022-11-23T19:08:20.904Z,59.98
2022-11-23T19:13:23.372Z,59.87
2022-11-23T19:18:28.135Z,60.18
2022-11-23T19:23:32.314Z,60.49
2022-11-23T19:28:35.054Z,60.86
2022-11-23T19:33:38.821Z,61.04
2022-11-23T19:38:41.842Z,60.87
2022-11-23T19:43:45.020Z,60.69
2022-11-23T19:48:49.882Z,61.22
2022-11-23T19:53:52.559Z,61.51
2022-11-23T19:58:57.833Z,61.54
2022-11-23T20:04:11.919Z,61.68
2022-11-23T20:09:20.543Z,61.47
2022-11-23T20:14:23.191Z,61.34
2022-11-23T20:19:32.570Z,61.70
2022-11-23T20:24:37.099Z,61.75
2022-11-23T20:29:40.895Z,62.21
2022-11-23T20:34:45.875Z,62.24
2022-11-23T20:39:48.572Z,62.32
2022-11-23T20:44:52.272Z,62.19
2022-11-23T20:49:54.949Z,62.55
2022-11-23T20:54:57.872Z,61.42
2022-11-23T21:00:00.546Z,62.05
2022-11-23T21:05:03.175Z,61.96
2022-11-23T21:10:07.217Z,62.63
2022-11-23T21:15:09.883Z,62.69
2022-11-23T21:20:12.955Z,62.14
2022-11-23T21:25:16.607Z,62.38
2022-11-23T21:30:19.158Z,62.27
2022-11-23T21:35:22.338Z,62.70
2022-11-23T21:40:26.955Z,62.64
2022-11-23T21:45:29.566Z,63.18
2022-11-23T21:50:32.139Z,63.58
2022-11-23T21:55:34.739Z,63.15
2022-11-23T22:00:38.452Z,63.93
2022-11-23T22:05:40.999Z,63.49
2022-11-23T22:10:43.739Z,63.73
2022-11-23T22:15:50.987Z,64.08
2022-11-23T22:20:53.392Z,64.69
2022-11-23T22:25:55.772Z,64.71
2022-11-23T22:30:58.471Z,64.45
2022-11-23T22:36:10.726Z,64.57
2022-11-23T22:41:17.919Z,64.72
2022-11-23T22:46:23.163Z,64.82
2022-11-23T22:51:28.128Z,64.88
2022-11-23T22:56:31.589Z,65.09
2022-11-23T23:01:34.745Z,65.60
2022-11-23T23:06:37.273Z,65.27
2022-11-23T23:11:40.222Z,65.26
2022-11-23T23:16:42.480Z,64.84
2022-11-23T23:21:44.840Z,65.48
2022-11-23T23:26:47.278Z,65.56
2022-11-23T23:31:49.983Z,65.57
2022-11-23T23:36:52.434Z,66.23
2022-11-23T23:41:54.878Z,65.64
2022-11-23T23:46:57.384Z,66.83
2022-11-23T23:51:59.764Z,66.94
2022-11-23T23:57:02.676Z,67.19
